Time;durP1;ratioP1;P1;durP2;ratioP2;P2;SDS_P1;SDS_P2;PMS_P1;PMS_P2;Temp;Humidity;BMP_temperature;BMP_pressure;BME280_temperature;BME280_humidity;BME280_pressure;Samples;Min_cycle;Max_cycle;Signal;HPM_P1;HPM_P2
2023/05/28 00:00:10;;;;;;;21.48;15.18;;;;;;;21.71;68.44;99808.77;1740877;82;21275;-83
2023/05/28 00:03:20;;;;;;;28.30;15.60;;;;;;;21.85;68.12;99817.83;1740618;82;21791;-83
2023/05/28 00:06:23;;;;;;;23.57;16.93;;;;;;;21.80;67.75;99817.78;1748109;80;21831;-83
2023/05/28 00:09:29;;;;;;;24.05;16.67;;;;;;;21.65;68.01;99815.67;1758558;80;21272;-83
2023/05/28 00:12:34;;;;;;;23.73;16.17;;;;;;;21.72;67.96;99817.40;1752547;82;21332;-83
2023/05/28 00:15:40;;;;;;;36.93;19.98;;;;;;;21.86;67.32;99832.59;1753821;82;21315;-83
2023/05/28 00:18:46;;;;;;;32.75;22.05;;;;;;;21.83;67.32;99824.22;1753821;82;21276;-82
2023/05/28 00:21:53;;;;;;;31.30;22.50;;;;;;;21.71;67.94;99826.30;1752991;82;21284;-83
2023/05/28 00:25:00;;;;;;;26.15;19.90;;;;;;;21.71;68.20;99825.47;1752552;79;21307;-82
2023/05/28 00:28:06;;;;;;;25.90;19.57;;;;;;;21.76;68.22;99829.70;1752659;82;21187;-83
2023/05/28 00:31:13;;;;;;;25.08;18.15;;;;;;;21.59;68.48;99836.17;1753578;82;21303;-83
2023/05/28 00:34:19;;;;;;;32.20;21.17;;;;;;;21.51;68.66;99829.70;1753293;82;21286;-82
2023/05/28 00:37:26;;;;;;;34.18;23.12;;;;;;;21.45;68.81;99830.71;1752772;82;21350;-82
2023/05/28 00:40:31;;;;;;;36.00;22.87;;;;;;;21.50;68.82;99834.98;1753971;82;21795;-82
2023/05/28 00:43:38;;;;;;;34.78;22.67;;;;;;;21.47;68.88;99830.48;1753864;82;21819;-82
2023/05/28 00:46:51;;;;;;;34.35;19.98;;;;;;;21.76;68.00;99825.52;1753368;82;21354;-81
2023/05/28 00:50:00;;;;;;;32.80;21.05;;;;;;;21.63;68.13;99830.38;1754152;82;21893;-83
2023/05/28 00:53:05;;;;;;;39.18;26.33;;;;;;;21.64;67.96;99829.83;1758252;79;21298;-82
2023/05/28 00:56:10;;;;;;;42.62;27.40;;;;;;;21.62;67.91;99827.31;1775043;81;21294;-82
2023/05/28 00:59:17;;;;;;;39.90;25.08;;;;;;;21.66;67.59;99824.30;1775191;81;21291;-82
2023/05/28 01:02:23;;;;;;;40.03;26.20;;;;;;;21.70;67.72;99817.67;1773720;81;21866;-82
2023/05/28 01:05:34;;;;;;;40.60;26.27;;;;;;;21.89;66.88;99825.11;1774536;81;21323;-82
2023/05/28 01:08:38;;;;;;;42.23;28.17;;;;;;;21.80;66.80;99828.91;1765101;80;21863;-81
2023/05/28 01:11:45;;;;;;;47.55;29.95;;;;;;;21.73;67.12;99835.77;1752727;82;21338;-82
2023/05/28 01:14:52;;;;;;;44.33;29.85;;;;;;;21.65;67.40;99842.11;1752650;82;21204;-81
2023/05/28 01:17:47;;;;;;;42.90;28.92;;;;;;;21.23;68.92;99840.44;1752847;82;21207;-82
2023/05/28 01:20:53;;;;;;;46.15;28.85;;;;;;;21.59;68.20;99845.07;1753866;82;21314;-82
2023/05/28 01:24:00;;;;;;;40.92;27.65;;;;;;;21.82;67.40;99856.48;1766032;79;21260;-82
2023/05/28 01:27:07;;;;;;;41.18;28.83;;;;;;;21.81;67.20;99850.63;1774220;81;21279;-82
2023/05/28 01:30:15;;;;;;;37.70;26.40;;;;;;;21.38;68.66;99849.56;1775152;81;21824;-81
2023/05/28 01:33:22;;;;;;;36.58;25.55;;;;;;;21.68;67.73;99848.53;1775252;81;21287;-81
2023/05/28 01:36:38;;;;;;;36.40;24.50;;;;;;;21.77;67.18;99846.68;1774908;81;21339;-82
2023/05/28 01:39:48;;;;;;;39.85;26.23;;;;;;;21.49;67.78;99841.62;1773951;80;21263;-81
2023/05/28 01:42:57;;;;;;;36.15;25.32;;;;;;;21.47;67.55;99841.05;1775404;81;21255;-81
2023/05/28 01:46:02;;;;;;;35.65;26.25;;;;;;;21.48;67.15;99844.11;1774324;81;21290;-81
2023/05/28 01:49:08;;;;;;;34.98;22.80;;;;;;;21.34;67.66;99841.44;1775233;81;21267;-81
2023/05/28 01:52:14;;;;;;;36.48;23.60;;;;;;;21.25;67.72;99845.73;1774656;81;21282;-81
2023/05/28 01:55:20;;;;;;;33.25;23.52;;;;;;;21.17;68.11;99852.05;1773825;81;21342;-81
2023/05/28 01:58:26;;;;;;;32.83;22.22;;;;;;;21.20;67.92;99852.06;1775370;81;21282;-81
2023/05/28 02:01:37;;;;;;;35.08;23.30;;;;;;;21.29;67.58;99846.90;1774538;81;21298;-82
2023/05/28 02:04:42;;;;;;;36.13;22.22;;;;;;;21.39;67.09;99855.41;1775265;81;21283;-81
2023/05/28 02:07:50;;;;;;;29.92;23.02;;;;;;;21.38;67.51;99863.47;1772332;80;21288;-81
2023/05/28 02:10:55;;;;;;;31.82;21.45;;;;;;;21.85;66.43;99862.38;1782181;80;21653;-81
2023/05/28 02:14:04;;;;;;;30.17;20.48;;;;;;;22.22;65.04;99859.45;1782470;80;21800;-82
2023/05/28 02:17:10;;;;;;;31.07;21.23;;;;;;;22.37;64.60;99859.02;1781318;80;21310;-82
2023/05/28 02:20:17;;;;;;;29.55;20.37;;;;;;;22.85;63.27;99864.70;1782408;80;21836;-82
2023/05/28 02:23:23;;;;;;;49.50;31.48;;;;;;;23.04;62.91;99867.37;1779419;80;21299;-82
2023/05/28 02:26:29;;;;;;;42.90;29.45;;;;;;;22.91;63.94;99858.07;1775463;81;21287;-82
2023/05/28 02:29:34;;;;;;;34.13;22.55;;;;;;;22.96;64.62;99862.31;1774936;81;21296;-82
2023/05/28 02:32:41;;;;;;;40.10;24.27;;;;;;;23.19;63.55;99865.22;1774934;81;21351;-81
2023/05/28 02:35:47;;;;;;;33.60;24.37;;;;;;;23.33;63.38;99864.19;1775861;81;21347;-82
2023/05/28 02:38:55;;;;;;;32.42;23.85;;;;;;;23.55;63.30;99860.67;1766100;79;21331;-81
2023/05/28 02:42:01;;;;;;;31.68;19.50;;;;;;;23.69;63.27;99856.28;1810736;79;21361;-82
2023/05/28 02:45:07;;;;;;;30.50;20.62;;;;;;;23.82;62.46;99863.87;1811715;79;21229;-81
2023/05/28 02:48:13;;;;;;;29.72;21.05;;;;;;;24.01;60.76;99863.65;1809871;79;21315;-82
2023/05/28 02:51:18;;;;;;;34.27;20.95;;;;;;;24.12;60.25;99863.11;1808638;79;21326;-82
2023/05/28 02:54:26;;;;;;;33.45;21.52;;;;;;;23.98;60.92;99862.80;1805139;79;21291;-82
2023/05/28 02:57:32;;;;;;;34.25;21.48;;;;;;;23.85;61.51;99859.95;1802483;79;21303;-82
2023/05/28 03:00:38;;;;;;;28.20;20.30;;;;;;;24.18;61.41;99868.45;1803612;79;21275;-82
2023/05/28 03:03:45;;;;;;;30.88;20.40;;;;;;;24.70;60.23;99862.33;1803901;79;21268;-82
2023/05/28 03:06:51;;;;;;;30.30;19.70;;;;;;;24.99;59.44;99868.20;1802986;79;21279;-82
2023/05/28 03:09:58;;;;;;;26.62;19.42;;;;;;;25.55;57.81;99861.08;1798186;79;21327;-82
2023/05/28 03:13:04;;;;;;;24.25;19.12;;;;;;;25.76;56.61;99861.00;1791823;80;21710;-83
2023/05/28 03:16:10;;;;;;;31.42;20.12;;;;;;;25.81;56.42;99862.38;1792737;80;21300;-83
2023/05/28 03:19:15;;;;;;;30.05;20.88;;;;;;;26.24;55.19;99874.72;1793261;80;21308;-83
2023/05/28 03:22:22;;;;;;;34.83;18.27;;;;;;;26.50;54.19;99870.66;1792024;80;21185;-83
2023/05/28 03:25:28;;;;;;;29.15;19.02;;;;;;;26.44;53.41;99868.16;1793303;80;21299;-83
2023/05/28 03:28:35;;;;;;;36.40;19.45;;;;;;;26.15;53.85;99870.30;1793196;80;21296;-83
2023/05/28 03:31:46;;;;;;;25.65;18.98;;;;;;;26.10;53.78;99873.70;1792453;80;21161;-82
2023/05/28 03:34:39;;;;;;;27.67;18.48;;;;;;;26.05;53.84;99866.16;1793347;80;21264;-82
2023/05/28 03:37:48;;;;;;;33.25;19.57;;;;;;;26.11;53.45;99866.42;1790312;80;21189;-82
2023/05/28 03:40:54;;;;;;;25.35;17.90;;;;;;;26.46;52.03;99867.32;1771846;81;21966;-82
2023/05/28 03:44:00;;;;;;;29.02;18.50;;;;;;;26.23;52.10;99867.45;1771937;81;21274;-82
2023/05/28 03:47:07;;;;;;;28.62;19.05;;;;;;;25.76;53.11;99866.61;1770863;81;21641;-82
2023/05/28 03:50:13;;;;;;;26.48;18.15;;;;;;;25.38;54.05;99864.77;1771936;81;21839;-82
2023/05/28 03:53:20;;;;;;;26.05;17.80;;;;;;;25.06;54.98;99864.53;1768522;81;21268;-82
2023/05/28 03:56:26;;;;;;;25.75;16.95;;;;;;;25.04;55.20;99863.16;1765195;81;21352;-82
2023/05/28 03:59:31;;;;;;;30.43;18.27;;;;;;;25.16;54.92;99867.90;1765646;81;21300;-82
2023/05/28 04:02:38;;;;;;;26.80;16.82;;;;;;;25.31;54.17;99864.21;1764366;81;21220;-82
2023/05/28 04:05:44;;;;;;;25.60;17.52;;;;;;;25.24;53.82;99868.16;1765797;81;21299;-82
2023/05/28 04:08:50;;;;;;;25.40;16.70;;;;;;;25.21;53.82;99865.92;1765952;80;21295;-82
2023/05/28 04:11:57;;;;;;;22.77;16.82;;;;;;;25.24;53.93;99870.95;1800150;79;21300;-81
2023/05/28 04:15:03;;;;;;;25.48;16.85;;;;;;;25.37;54.00;99875.12;1801803;79;21829;-81
2023/05/28 04:18:10;;;;;;;25.02;18.30;;;;;;;25.39;54.21;99877.63;1800926;79;21189;-81
2023/05/28 04:21:15;;;;;;;27.02;17.07;;;;;;;25.61;53.92;99874.48;1801410;79;21323;-83
2023/05/28 04:24:20;;;;;;;27.42;18.48;;;;;;;25.56;54.04;99873.11;1801487;79;21300;-82
2023/05/28 04:27:26;;;;;;;27.75;17.95;;;;;;;26.07;52.96;99875.70;1800691;79;21338;-81
2023/05/28 04:30:32;;;;;;;28.05;19.17;;;;;;;26.03;53.05;99881.03;1801837;79;21853;-82
2023/05/28 04:33:38;;;;;;;26.02;19.62;;;;;;;26.20;52.53;99883.44;1801833;79;21276;-82
2023/05/28 04:36:45;;;;;;;29.85;19.85;;;;;;;25.92;52.76;99887.80;1801141;79;21864;-82
2023/05/28 04:39:51;;;;;;;28.83;19.23;;;;;;;26.00;52.45;99892.81;1796057;79;21300;-81
2023/05/28 04:42:58;;;;;;;27.30;18.37;;;;;;;26.40;51.70;99897.91;1796234;80;21833;-81
2023/05/28 04:46:06;;;;;;;27.70;17.45;;;;;;;26.64;50.89;99893.26;1795942;80;21295;-81
2023/05/28 04:49:11;;;;;;;21.07;15.40;;;;;;;26.76;50.87;99896.50;1795019;80;21288;-81
2023/05/28 04:52:17;;;;;;;22.62;15.30;;;;;;;26.93;50.40;99900.30;1795056;80;21876;-81
2023/05/28 04:55:24;;;;;;;23.27;14.47;;;;;;;27.38;49.24;99901.55;1795548;80;21288;-81
2023/05/28 04:58:31;;;;;;;17.77;12.37;;;;;;;27.73;48.27;99900.34;1795350;80;21685;-81
2023/05/28 05:01:41;;;;;;;16.85;11.75;;;;;;;27.80;47.65;99902.20;1795369;80;21308;-82
2023/05/28 05:04:48;;;;;;;16.52;10.95;;;;;;;28.34;45.85;99909.92;1796527;80;21825;-82
2023/05/28 05:07:56;;;;;;;13.32;8.20;;;;;;;28.28;45.40;99907.19;1795882;80;21375;-82
2023/05/28 05:11:04;;;;;;;15.43;7.47;;;;;;;28.38;45.05;99918.05;1715149;83;21308;-82
2023/05/28 05:14:11;;;;;;;18.52;8.00;;;;;;;28.70;43.86;99915.30;1745380;82;21312;-82
2023/05/28 05:17:18;;;;;;;16.50;6.92;;;;;;;28.81;42.70;99914.55;1713486;83;21328;-82
2023/05/28 05:20:24;;;;;;;8.90;6.72;;;;;;;29.10;41.97;99914.34;1745515;82;21197;-82
2023/05/28 05:23:31;;;;;;;9.43;5.37;;;;;;;29.13;42.17;99918.55;1716514;83;21304;-82
2023/05/28 05:26:37;;;;;;;7.22;4.97;;;;;;;29.22;42.44;99925.97;1750075;82;21292;-82
2023/05/28 05:29:43;;;;;;;12.63;5.50;;;;;;;29.49;41.71;99918.69;1718602;83;21319;-82
2023/05/28 05:32:52;;;;;;;9.20;5.30;;;;;;;29.49;40.97;99915.87;1750899;82;21267;-82
2023/05/28 05:36:00;;;;;;;9.48;4.67;;;;;;;29.69;40.61;99913.23;1718271;83;21390;-81
2023/05/28 05:39:24;;;;;;;12.03;3.60;;;;;;;30.44;39.77;99921.78;1749875;82;21292;-81
2023/05/28 05:42:32;;;;;;;;;;;;;;;30.67;38.58;99923.48;1719756;83;21387;-82
2023/05/28 05:45:38;;;;;;;4.87;3.30;;;;;;;30.53;38.86;99921.28;1751017;82;20257;-82
2023/05/28 05:48:44;;;;;;;5.72;3.52;;;;;;;30.15;39.43;99918.77;1719453;83;21326;-82
2023/05/28 05:51:51;;;;;;;13.75;4.15;;;;;;;30.48;37.91;99915.77;1750188;82;21427;-81
2023/05/28 05:54:59;;;;;;;9.40;4.25;;;;;;;30.39;37.76;99912.03;1719939;83;21307;-82
2023/05/28 05:58:06;;;;;;;8.40;4.55;;;;;;;30.39;38.13;99923.31;1749763;82;21296;-81
2023/05/28 06:01:13;;;;;;;7.10;4.53;;;;;;;30.32;38.20;99922.93;1719593;83;21311;-82
2023/05/28 06:04:18;;;;;;;11.28;5.50;;;;;;;30.36;39.04;99919.73;1750915;82;21170;-82
2023/05/28 06:07:28;;;;;;;9.13;4.90;;;;;;;29.88;40.05;99920.17;1718791;83;21299;-80
2023/05/28 06:10:35;;;;;;;8.93;5.03;;;;;;;30.26;39.55;99925.87;1693491;85;21299;-82
2023/05/28 06:13:41;;;;;;;7.53;4.85;;;;;;;29.64;40.39;99925.48;1705189;84;21349;-82
2023/05/28 06:16:48;;;;;;;6.17;4.65;;;;;;;29.43;40.86;99932.62;1717190;83;21323;-82
2023/05/28 06:19:54;;;;;;;9.15;4.60;;;;;;;29.60;40.40;99937.11;1729643;83;21839;-82
2023/05/28 06:22:56;;;;;;;6.72;4.17;;;;;;;29.87;39.95;99935.42;1730940;83;21823;-82
2023/05/28 06:26:03;;;;;;;9.83;4.50;;;;;;;30.05;39.48;99941.53;1730744;83;21317;-81
2023/05/28 06:29:00;;;;;;;;;;;;;;;30.12;39.59;99954.64;1732964;83;21879;-82
2023/05/28 06:32:07;;;;;;;7.12;4.70;;;;;;;30.39;39.37;99941.07;1730140;83;20250;-81
2023/05/28 06:35:13;;;;;;;6.75;4.60;;;;;;;29.87;40.28;99949.52;1730925;83;21278;-81
2023/05/28 06:38:19;;;;;;;11.50;4.42;;;;;;;30.03;40.18;99956.53;1739697;81;21829;-81
2023/05/28 06:41:25;;;;;;;8.80;4.20;;;;;;;29.79;40.28;99949.13;1759765;81;21320;-81
2023/05/28 06:44:34;;;;;;;6.73;4.53;;;;;;;30.21;39.97;99947.72;1761299;81;21878;-81
2023/05/28 06:47:40;;;;;;;6.83;4.20;;;;;;;30.19;39.71;99955.06;1761120;81;21201;-81
2023/05/28 06:50:46;;;;;;;4.60;3.58;;;;;;;30.31;39.10;99949.48;1759835;81;21296;-81
2023/05/28 06:53:51;;;;;;;6.53;3.52;;;;;;;30.69;38.12;99950.82;1761113;81;21323;-81
2023/05/28 06:56:56;;;;;;;11.15;3.33;;;;;;;30.11;38.06;99951.53;1760493;81;21327;-81
2023/05/28 07:00:16;;;;;;;8.85;3.75;;;;;;;30.43;37.77;99954.80;1757547;81;21320;-82
2023/05/28 07:03:30;;;;;;;10.95;4.53;;;;;;;30.60;36.93;99951.32;1761371;81;21286;-81
2023/05/28 07:06:38;;;;;;;5.17;3.45;;;;;;;30.80;36.50;99953.67;1760490;81;21307;-82
2023/05/28 07:09:46;;;;;;;7.17;3.60;;;;;;;30.80;36.99;99953.67;1722683;81;21311;-81
2023/05/28 07:12:45;;;;;;;5.28;4.05;;;;;;;31.10;36.50;99956.05;1717141;83;21330;-81
2023/05/28 07:15:52;;;;;;;5.75;3.87;;;;;;;31.61;35.60;99952.72;1743613;81;21314;-82
2023/05/28 07:18:59;;;;;;;10.80;4.37;;;;;;;31.78;35.62;99964.70;1760267;81;21287;-81
2023/05/28 07:22:06;;;;;;;7.60;3.75;;;;;;;31.61;36.09;99951.30;1760211;81;21316;-82
2023/05/28 07:25:14;;;;;;;11.35;4.12;;;;;;;31.42;36.58;99956.37;1761835;81;21293;-81
2023/05/28 07:28:21;;;;;;;7.33;3.90;;;;;;;31.59;35.16;99959.88;1760887;81;21912;-81
2023/05/28 07:31:27;;;;;;;8.68;5.10;;;;;;;31.28;36.40;99962.93;1760171;81;21288;-81
2023/05/28 07:34:34;;;;;;;6.10;4.05;;;;;;;30.97;36.88;99963.45;1761688;81;21825;-82
2023/05/28 07:37:40;;;;;;;13.28;4.58;;;;;;;30.62;36.67;99959.46;1759793;80;21865;-82
2023/05/28 07:40:47;;;;;;;9.18;5.33;;;;;;;31.20;35.95;99965.70;1733513;83;21323;-82
2023/05/28 07:43:48;;;;;;;7.35;4.78;;;;;;;31.07;35.90;99956.13;1732939;83;21276;-82
2023/05/28 07:46:56;;;;;;;6.78;5.25;;;;;;;31.61;35.47;99955.55;1739254;82;21319;-82
2023/05/28 07:50:16;;;;;;;7.33;4.47;;;;;;;31.65;35.58;99958.56;1658846;82;21340;-81
2023/05/28 07:53:25;;;;;;;;;;;;;;;31.70;35.31;99955.01;1737690;82;21837;-82
2023/05/28 07:56:32;;;;;;;8.88;4.90;;;;;;;31.77;35.84;99955.39;1723424;83;20280;-83
2023/05/28 07:59:40;;;;;;;5.95;4.62;;;;;;;31.75;35.53;99952.62;1724896;83;21348;-82
2023/05/28 08:02:48;;;;;;;8.38;4.50;;;;;;;32.07;35.79;99947.19;1725033;83;21293;-81
2023/05/28 08:05:56;;;;;;;9.55;4.60;;;;;;;32.11;36.82;99951.62;1724826;83;21354;-82
2023/05/28 08:09:02;;;;;;;8.08;5.03;;;;;;;31.83;37.36;99943.38;1736752;82;21351;-82
2023/05/28 08:12:09;;;;;;;7.30;5.17;;;;;;;31.87;36.48;99948.63;1743774;82;21288;-82
2023/05/28 08:15:18;;;;;;;8.28;4.80;;;;;;;31.74;36.34;99934.83;1743073;82;21320;-81
2023/05/28 08:18:25;;;;;;;8.57;4.40;;;;;;;31.68;36.66;99936.14;1735703;82;21320;-81
2023/05/28 08:21:34;;;;;;;8.45;4.42;;;;;;;31.53;36.43;99935.16;1735506;82;21340;-82
2023/05/28 08:24:40;;;;;;;9.50;5.15;;;;;;;31.40;37.45;99939.75;1736806;82;21292;-82
2023/05/28 08:27:47;;;;;;;10.70;4.60;;;;;;;31.12;37.59;99939.05;1736727;82;21154;-82
2023/05/28 08:30:53;;;;;;;8.13;4.95;;;;;;;31.23;38.18;99930.55;1736801;82;21260;-82
2023/05/28 08:34:01;;;;;;;6.78;4.40;;;;;;;31.05;38.47;99936.69;1738437;82;21216;-82
2023/05/28 08:37:08;;;;;;;7.37;3.90;;;;;;;30.94;38.04;99942.33;1737242;82;21205;-82
2023/05/28 08:40:15;;;;;;;5.47;3.27;;;;;;;30.65;37.46;99937.67;1714535;83;21241;-82
2023/05/28 08:43:15;;;;;;;5.95;3.98;;;;;;;30.42;38.18;99941.03;1715196;83;21757;-81
2023/05/28 08:46:08;;;;;;;3.95;3.10;;;;;;;30.26;37.88;99937.73;1691465;83;21311;-82
2023/05/28 08:49:17;;;;;;;6.37;3.40;;;;;;;29.89;38.44;99934.55;1710836;83;21340;-83
2023/05/28 08:52:24;;;;;;;6.00;3.75;;;;;;;29.87;38.85;99935.42;1715301;83;21909;-82
2023/05/28 08:55:29;;;;;;;8.78;4.15;;;;;;;29.80;38.35;99937.27;1716515;83;21848;-82
2023/05/28 08:58:42;;;;;;;6.83;3.67;;;;;;;29.64;40.14;99935.89;1716471;83;21359;-83
2023/05/28 09:01:46;;;;;;;6.85;4.37;;;;;;;29.76;40.15;99937.05;1715751;83;21240;-82
2023/05/28 09:04:53;;;;;;;7.22;3.65;;;;;;;29.93;39.49;99939.83;1716525;83;21352;-82
2023/05/28 09:08:00;;;;;;;16.85;4.92;;;;;;;29.96;39.06;99944.82;1716504;82;21284;-82
2023/05/28 09:11:04;;;;;;;10.10;3.90;;;;;;;29.89;37.88;99941.60;1716551;83;21327;-82
2023/05/28 09:14:21;;;;;;;7.40;3.60;;;;;;;29.97;37.96;99943.66;1706572;83;21324;-82
2023/05/28 09:17:39;;;;;;;7.20;3.40;;;;;;;29.97;37.96;99943.66;1715018;83;21300;-83
2023/05/28 09:20:48;;;;;;;7.60;3.95;;;;;;;29.98;38.04;99951.00;1673833;85;21332;-82
2023/05/28 09:23:58;;;;;;;7.47;4.10;;;;;;;29.88;37.41;99940.77;1731749;82;21807;-83
2023/05/28 09:27:19;;;;;;;6.60;3.72;;;;;;;29.85;38.06;99944.20;1729794;82;21319;-83
2023/05/28 09:30:24;;;;;;;6.45;4.05;;;;;;;29.88;37.60;99945.55;1727016;82;21327;-82
2023/05/28 09:33:30;;;;;;;8.13;4.25;;;;;;;30.04;37.85;99938.45;1748580;82;21284;-82
2023/05/28 09:36:36;;;;;;;9.45;4.08;;;;;;;30.10;38.47;99944.23;1747937;82;22328;-82
2023/05/28 09:39:41;;;;;;;6.97;4.05;;;;;;;30.22;37.86;99945.15;1745788;82;21185;-82
2023/05/28 09:42:48;;;;;;;7.78;4.00;;;;;;;30.09;37.88;99943.98;1713806;83;21229;-82
2023/05/28 09:45:52;;;;;;;6.28;4.10;;;;;;;30.03;38.49;99937.62;1744743;82;21204;-83
2023/05/28 09:48:58;;;;;;;7.15;3.77;;;;;;;30.34;38.27;99938.95;1713119;83;21884;-83
2023/05/28 09:52:06;;;;;;;10.23;3.60;;;;;;;30.26;38.66;99938.56;1744460;82;21312;-83
2023/05/28 09:55:12;;;;;;;4.42;3.75;;;;;;;30.34;38.31;99935.55;1714484;83;21300;-82
2023/05/28 09:58:19;;;;;;;4.95;3.47;;;;;;;30.36;37.97;99933.27;1745492;82;21848;-83
2023/05/28 10:01:25;;;;;;;6.92;3.77;;;;;;;30.64;38.09;99932.61;1713354;83;21853;-82
2023/05/28 10:04:34;;;;;;;6.40;3.95;;;;;;;30.79;38.22;99932.25;1745395;82;21280;-82
2023/05/28 10:07:40;;;;;;;;;;;;;;;30.87;38.73;99936.31;1715724;83;21908;-82
2023/05/28 10:10:47;;;;;;;6.95;3.50;;;;;;;30.53;39.01;99931.98;1745268;82;20253;-83
2023/05/28 10:13:54;;;;;;;5.00;3.20;;;;;;;30.64;38.29;99936.01;1713399;83;21881;-83
2023/05/28 10:17:01;;;;;;;4.22;3.40;;;;;;;30.74;37.78;99933.80;1744465;82;21876;-83
2023/05/28 10:20:09;;;;;;;9.60;4.00;;;;;;;30.74;38.92;99930.97;1714570;83;21286;-82
2023/05/28 10:23:15;;;;;;;6.62;3.65;;;;;;;30.68;38.47;99933.64;1744494;82;21883;-82
2023/05/28 10:26:22;;;;;;;5.50;3.42;;;;;;;30.57;38.18;99931.36;1714044;83;21319;-82
2023/05/28 10:29:27;;;;;;;5.37;3.27;;;;;;;30.63;38.54;99933.77;1745456;82;21308;-82
2023/05/28 10:32:34;;;;;;;8.65;3.40;;;;;;;30.79;38.25;99918.14;1713275;83;21343;-82
2023/05/28 10:35:42;;;;;;;13.50;2.90;;;;;;;30.76;38.17;99920.18;1744037;82;21362;-82
2023/05/28 10:39:06;;;;;;;7.08;3.27;;;;;;;31.12;38.13;99917.03;1714431;83;21284;-82
2023/05/28 10:42:12;;;;;;;6.80;3.42;;;;;;;31.24;37.24;99913.02;1744422;82;21872;-83
2023/05/28 10:45:19;;;;;;;9.03;3.20;;;;;;;31.12;37.63;99912.80;1714429;83;21289;-82
2023/05/28 10:48:25;;;;;;;5.10;3.10;;;;;;;31.46;36.79;99913.01;1743965;82;21304;-83
2023/05/28 10:51:30;;;;;;;4.53;3.05;;;;;;;31.74;36.64;99902.31;1712975;83;21319;-83
2023/05/28 10:54:45;;;;;;;7.10;3.20;;;;;;;31.78;36.23;99901.91;1745468;82;21316;-82
2023/05/28 10:57:55;;;;;;;6.17;3.70;;;;;;;31.43;36.83;99908.58;1713234;83;21315;-83
2023/05/28 11:01:13;;;;;;;4.08;3.20;;;;;;;31.62;36.59;99904.95;1745420;82;21805;-83
2023/05/28 11:04:19;;;;;;;3.67;2.50;;;;;;;30.97;37.33;99902.74;1713063;83;21297;-81
2023/05/28 11:07:24;;;;;;;3.17;2.80;;;;;;;31.22;36.96;99897.81;1744746;82;21365;-81
2023/05/28 11:10:30;;;;;;;6.25;3.33;;;;;;;31.22;36.80;99901.22;1714533;83;21307;-82
2023/05/28 11:13:35;;;;;;;7.28;3.22;;;;;;;31.81;35.63;99894.20;1744021;82;21856;-82
2023/05/28 11:16:40;;;;;;;3.90;2.55;;;;;;;31.60;35.15;99894.53;1713598;83;21336;-82
2023/05/28 11:19:55;;;;;;;4.33;2.85;;;;;;;31.55;35.39;99888.44;1734020;81;21352;-81
2023/05/28 11:23:01;;;;;;;3.50;2.92;;;;;;;31.86;34.72;99900.91;1729281;83;21189;-81
2023/05/28 11:26:13;;;;;;;8.18;3.12;;;;;;;31.80;35.25;99891.09;1728982;83;21331;-81
2023/05/28 11:29:16;;;;;;;;;;;;;;;32.09;34.33;99903.01;1731839;83;21202;-81
2023/05/28 11:32:23;;;;;;;6.35;2.70;;;;;;;31.97;33.38;99900.84;1728920;83;20634;-81
2023/05/28 11:35:28;;;;;;;6.03;2.70;;;;;;;31.86;33.88;99896.66;1729171;83;21162;-81
2023/05/28 11:38:34;;;;;;;5.53;3.35;;;;;;;32.10;33.53;99897.05;1729279;83;21300;-81
2023/05/28 11:41:40;;;;;;;3.87;2.62;;;;;;;31.83;34.27;99901.55;1728496;83;21395;-82
2023/05/28 11:44:51;;;;;;;3.60;2.80;;;;;;;32.01;34.76;99907.50;1728214;83;21293;-82
2023/05/28 11:47:51;;;;;;;5.37;2.85;;;;;;;31.84;34.33;99905.45;1729164;83;21338;-81
2023/05/28 11:50:56;;;;;;;6.28;3.40;;;;;;;31.89;34.12;99905.88;1728704;83;21367;-82
2023/05/28 11:54:01;;;;;;;9.95;4.17;;;;;;;31.91;36.66;99896.50;1727407;83;21360;-82
2023/05/28 11:57:10;;;;;;;12.82;5.08;;;;;;;31.74;37.55;99900.07;1729044;83;21881;-82
2023/05/28 12:00:19;;;;;;;12.37;4.22;;;;;;;31.45;38.42;99904.28;1729022;83;21301;-82
2023/05/28 12:03:25;;;;;;;8.43;4.70;;;;;;;31.93;37.92;99906.89;1728030;83;21336;-81
2023/05/28 12:06:30;;;;;;;6.50;4.78;;;;;;;31.59;38.30;99908.41;1727424;83;21312;-81
2023/05/28 12:09:37;;;;;;;5.70;4.35;;;;;;;31.44;38.18;99913.09;1713540;83;21301;-81
2023/05/28 12:12:51;;;;;;;8.70;3.87;;;;;;;31.38;38.67;99905.89;1728889;83;21873;-81
2023/05/28 12:15:57;;;;;;;7.17;3.60;;;;;;;32.19;37.49;99909.20;1728661;83;21893;-82
2023/05/28 12:19:14;;;;;;;9.50;3.60;;;;;;;31.71;37.45;99911.47;1729063;83;21316;-82
2023/05/28 12:22:23;;;;;;;8.05;3.42;;;;;;;31.65;37.16;99903.45;1711891;82;21314;-82
2023/05/28 12:25:29;;;;;;;5.97;4.00;;;;;;;31.87;36.44;99909.63;1718857;83;21280;-82
2023/05/28 12:28:39;;;;;;;6.35;4.00;;;;;;;31.74;36.17;99912.20;1750905;82;21275;-82
2023/05/28 12:31:44;;;;;;;6.42;3.90;;;;;;;31.83;37.33;99917.09;1719263;83;21303;-81
2023/05/28 12:34:51;;;;;;;5.83;4.28;;;;;;;31.59;37.79;99925.37;1750231;82;21338;-82
2023/05/28 12:37:59;;;;;;;11.38;3.27;;;;;;;31.56;37.35;99927.42;1719769;83;21311;-82
2023/05/28 12:41:04;;;;;;;11.78;3.35;;;;;;;31.39;33.66;99935.84;1750641;82;21323;-82
2023/05/28 12:44:11;;;;;;;3.17;2.45;;;;;;;30.88;34.00;99923.85;1719862;83;21280;-82
2023/05/28 12:47:10;;;;;;;12.75;3.95;;;;;;;30.68;34.44;99942.11;1749601;82;21324;-82
2023/05/28 12:50:06;;;;;;;10.78;3.42;;;;;;;30.28;35.40;99935.41;1719820;83;21268;-82
2023/05/28 12:53:11;;;;;;;7.62;2.85;;;;;;;29.90;36.19;99930.58;1750892;82;21793;-81
2023/05/28 12:56:18;;;;;;;7.08;2.80;;;;;;;29.48;36.68;99938.16;1718621;83;21315;-82
2023/05/28 12:59:33;;;;;;;14.20;3.35;;;;;;;29.02;37.92;99949.66;1750879;82;21284;-82
2023/05/28 13:02:39;;;;;;;4.87;2.67;;;;;;;28.93;38.11;99947.83;1719449;83;21323;-82
2023/05/28 13:05:46;;;;;;;7.33;2.87;;;;;;;28.78;38.44;99951.16;1749927;82;21306;-82
2023/05/28 13:08:52;;;;;;;13.95;3.08;;;;;;;28.68;38.52;99944.30;1719738;83;21844;-82
2023/05/28 13:11:58;;;;;;;8.18;2.70;;;;;;;28.85;38.91;99942.92;1749903;82;21413;-81
2023/05/28 13:15:05;;;;;;;13.98;3.67;;;;;;;28.84;39.14;99939.23;1719388;83;21911;-81
2023/05/28 13:18:10;;;;;;;9.23;3.75;;;;;;;28.66;39.77;99948.57;1750708;82;21308;-82
2023/05/28 13:21:17;;;;;;;17.60;3.87;;;;;;;28.42;40.82;99944.41;1716211;81;22237;-82
2023/05/28 13:24:15;;;;;;;7.95;4.22;;;;;;;28.25;41.68;99944.34;1787825;80;21256;-82
2023/05/28 13:27:22;;;;;;;13.05;4.40;;;;;;;28.13;42.06;99945.91;1707045;84;21333;-82
2023/05/28 13:30:29;;;;;;;7.22;3.80;;;;;;;28.08;42.54;99932.76;1787908;80;21280;-82
2023/05/28 13:33:35;;;;;;;12.33;6.35;;;;;;;27.96;42.87;99932.37;1707848;84;21833;-82
2023/05/28 13:36:41;;;;;;;8.50;6.15;;;;;;;28.01;42.62;99935.12;1787204;80;21824;-81
2023/05/28 13:39:48;;;;;;;13.03;7.50;;;;;;;27.92;42.75;99929.89;1708176;84;21304;-82
2023/05/28 13:42:56;;;;;;;16.73;10.30;;;;;;;27.95;42.37;99927.33;1788715;80;21273;-81
2023/05/28 13:46:02;;;;;;;10.85;7.70;;;;;;;28.37;42.07;99930.42;1787765;80;21323;-81
2023/05/28 13:49:07;;;;;;;16.67;6.45;;;;;;;28.06;43.29;99921.56;1707444;84;21304;-81
2023/05/28 13:52:14;;;;;;;11.08;5.28;;;;;;;27.96;43.90;99923.95;1786981;80;21300;-81
2023/05/28 13:55:19;;;;;;;11.48;5.20;;;;;;;27.67;43.52;99923.43;1771785;80;21328;-81
2023/05/28 13:58:25;;;;;;;9.93;5.47;;;;;;;27.73;41.75;99931.25;1708284;84;21316;-83
2023/05/28 14:01:30;;;;;;;11.08;4.97;;;;;;;27.84;41.59;99941.22;1787974;80;21339;-81
2023/05/28 14:04:36;;;;;;;7.95;4.97;;;;;;;28.10;41.23;99956.37;1786955;80;21308;-82
2023/05/28 14:07:42;;;;;;;12.40;5.20;;;;;;;27.73;42.01;99959.34;1707630;84;22015;-82
2023/05/28 14:10:50;;;;;;;7.10;5.40;;;;;;;27.59;42.31;99959.77;1788385;80;21312;-81
2023/05/28 14:13:57;;;;;;;9.08;4.78;;;;;;;27.56;42.00;99962.58;1788344;80;21320;-81
2023/05/28 14:17:03;;;;;;;8.43;4.80;;;;;;;27.53;42.15;99966.00;1708418;84;21363;-81
2023/05/28 14:20:10;;;;;;;8.70;5.20;;;;;;;27.46;42.41;99969.14;1789904;80;21353;-82
2023/05/28 14:23:16;;;;;;;10.98;5.17;;;;;;;27.42;42.64;99969.47;1708942;84;21685;-81
2023/05/28 14:26:22;;;;;;;12.28;5.28;;;;;;;27.30;43.32;99982.25;1788132;80;21300;-81
2023/05/28 14:29:29;;;;;;;10.05;6.53;;;;;;;27.38;43.50;99979.61;1708663;84;21885;-82